Time;durP1;ratioP1;P1;durP2;ratioP2;P2;SDS_P1;SDS_P2;PMS_P1;PMS_P2;Temp;Humidity;BMP_temperature;BMP_pressure;BME280_temperature;BME280_humidity;BME280_pressure;Samples;Min_cycle;Max_cycle;Signal;HPM_P1;HPM_P2
2023/08/11 00:00:21;;;;;;;3.43;1.80;;;;;;;21.85;64.62;99734.25;5031411;28;20225;-67
2023/08/11 00:02:49;;;;;;;2.20;2.10;;;;;;;21.63;65.39;99742.47;5033619;28;20611;-67
2023/08/11 00:05:17;;;;;;;1.87;1.77;;;;;;;21.45;65.71;99728.56;5034733;28;20208;-67
2023/08/11 00:07:44;;;;;;;1.73;1.70;;;;;;;21.35;65.75;99734.72;5035028;28;20193;-67
2023/08/11 00:10:13;;;;;;;1.97;1.67;;;;;;;21.27;66.55;99729.78;5035341;28;20255;-67
2023/08/11 00:12:40;;;;;;;1.97;1.87;;;;;;;21.22;66.87;99731.66;5034984;28;20291;-67
2023/08/11 00:15:08;;;;;;;1.73;1.63;;;;;;;21.27;67.07;99727.09;5035098;28;20225;-68
2023/08/11 00:17:36;;;;;;;1.70;1.60;;;;;;;21.38;67.79;99723.41;5033681;28;20197;-67
2023/08/11 00:20:05;;;;;;;1.43;1.43;;;;;;;21.44;66.44;99733.16;5034871;28;20647;-67
2023/08/11 00:22:32;;;;;;;1.43;1.43;;;;;;;21.66;66.56;99724.91;5035375;28;20276;-67
2023/08/11 00:25:00;;;;;;;1.73;1.63;;;;;;;21.80;66.30;99726.13;5034558;28;20232;-68
2023/08/11 00:27:28;;;;;;;1.50;1.50;;;;;;;21.99;65.70;99725.41;5034965;28;20193;-70
2023/08/11 00:29:56;;;;;;;1.73;1.60;;;;;;;22.21;64.52;99725.22;5034638;28;20292;-67
2023/08/11 00:32:23;;;;;;;1.80;1.70;;;;;;;22.39;63.71;99730.97;5034322;28;20290;-68
2023/08/11 00:34:51;;;;;;;1.80;1.70;;;;;;;22.40;62.62;99735.28;5034211;28;20224;-68
2023/08/11 00:37:18;;;;;;;1.80;1.30;;;;;;;22.40;62.92;99737.16;5034498;28;20288;-67
2023/08/11 00:39:45;;;;;;;2.97;1.80;;;;;;;22.49;62.99;99736.41;5034464;28;20731;-67
2023/08/11 00:42:12;;;;;;;2.40;1.50;;;;;;;22.47;62.55;99733.19;5034674;28;20189;-68
2023/08/11 00:44:39;;;;;;;1.63;1.53;;;;;;;22.53;61.99;99739.38;5034376;28;20210;-67
2023/08/11 00:47:06;;;;;;;2.03;1.50;;;;;;;22.48;62.18;99734.78;5034336;28;20198;-67
2023/08/11 00:49:33;;;;;;;1.80;1.70;;;;;;;22.31;61.38;99734.19;5034326;28;20691;-67
2023/08/11 00:52:01;;;;;;;1.87;1.77;;;;;;;22.10;61.53;99726.25;5034263;28;20688;-67
2023/08/11 00:54:30;;;;;;;3.27;1.60;;;;;;;21.82;62.05;99719.38;5034257;28;20244;-68
2023/08/11 00:56:57;;;;;;;2.30;1.60;;;;;;;21.48;63.36;99731.56;5034426;28;20673;-68
2023/08/11 00:59:24;;;;;;;1.63;1.63;;;;;;;21.38;64.90;99726.09;5033371;28;20251;-68
2023/08/11 01:01:51;;;;;;;2.10;2.00;;;;;;;21.51;63.94;99728.34;5033926;28;20225;-68
2023/08/11 01:04:18;;;;;;;1.60;1.50;;;;;;;21.62;63.65;99727.34;5034322;28;20243;-68
2023/08/11 01:06:46;;;;;;;1.70;1.60;;;;;;;21.48;63.50;99730.78;5033923;28;20201;-68
2023/08/11 01:09:24;;;;;;;1.50;1.50;;;;;;;20.92;65.02;99726.84;5033901;28;20197;-68
2023/08/11 01:12:01;;;;;;;1.57;1.50;;;;;;;20.81;65.54;99721.53;5034334;28;20193;-69
2023/08/11 01:14:34;;;;;;;2.37;1.50;;;;;;;20.88;65.43;99728.38;5033612;28;20185;-68
2023/08/11 01:17:04;;;;;;;2.00;1.77;;;;;;;20.72;65.86;99723.91;5034162;28;20190;-69
2023/08/11 01:19:33;;;;;;;2.00;1.83;;;;;;;20.59;66.95;99721.63;5034040;28;20197;-69
2023/08/11 01:22:02;;;;;;;3.27;1.57;;;;;;;20.66;66.70;99729.53;5033578;28;20224;-68
2023/08/11 01:24:31;;;;;;;2.23;1.47;;;;;;;20.69;66.15;99735.22;5033838;28;20279;-68
2023/08/11 01:26:58;;;;;;;1.47;1.47;;;;;;;20.71;66.54;99727.69;5033162;28;20190;-68
2023/08/11 01:29:25;;;;;;;2.50;1.40;;;;;;;20.74;66.41;99726.38;5033859;28;20202;-68
2023/08/11 01:31:52;;;;;;;1.80;1.70;;;;;;;20.82;67.07;99729.41;5033864;28;20197;-68
2023/08/11 01:34:19;;;;;;;2.00;1.90;;;;;;;20.69;66.37;99734.41;5033904;28;20686;-68
2023/08/11 01:36:46;;;;;;;1.80;1.70;;;;;;;20.47;66.99;99737.16;5033434;28;20665;-69
2023/08/11 01:39:13;;;;;;;2.87;1.57;;;;;;;20.26;67.81;99735.31;5033712;28;20271;-69
2023/08/11 01:41:41;;;;;;;1.50;1.50;;;;;;;20.25;68.02;99739.06;5032697;28;20604;-68
2023/08/11 01:44:09;;;;;;;2.13;1.70;;;;;;;20.26;68.14;99736.09;5033345;28;20193;-69
2023/08/11 01:46:36;;;;;;;1.73;1.63;;;;;;;20.26;68.36;99735.31;5033208;28;20243;-69
2023/08/11 01:49:04;;;;;;;1.83;1.73;;;;;;;20.18;68.73;99731.16;5033542;28;20195;-68
2023/08/11 01:51:32;;;;;;;2.40;1.63;;;;;;;20.20;68.90;99741.69;5033052;28;20197;-68
2023/08/11 01:53:58;;;;;;;4.17;1.77;;;;;;;19.96;69.82;99735.72;5032058;28;20259;-68
2023/08/11 01:56:27;;;;;;;1.97;1.87;;;;;;;19.86;70.47;99732.09;5032681;28;20216;-68
2023/08/11 01:58:57;;;;;;;2.03;1.93;;;;;;;19.81;70.72;99742.81;5033529;28;20203;-68
2023/08/11 02:01:23;;;;;;;3.00;1.80;;;;;;;19.72;71.28;99741.56;5033083;28;20279;-68
2023/08/11 02:03:50;;;;;;;2.00;1.90;;;;;;;19.67;71.93;99736.94;5033302;28;20197;-67
2023/08/11 02:06:17;;;;;;;1.70;1.60;;;;;;;19.53;73.58;99738.34;5032223;28;20201;-68
2023/08/11 02:08:43;;;;;;;2.83;2.07;;;;;;;19.71;72.13;99737.25;5033348;28;20248;-67
2023/08/11 02:11:10;;;;;;;1.93;1.83;;;;;;;19.78;71.01;99737.91;5033081;28;20193;-68
2023/08/11 02:13:37;;;;;;;1.83;1.70;;;;;;;19.62;71.44;99733.38;5032760;28;20197;-68
2023/08/11 02:16:05;;;;;;;2.83;2.10;;;;;;;19.67;71.35;99736.13;5032186;28;20194;-68
2023/08/11 02:18:31;;;;;;;1.97;1.87;;;;;;;19.58;71.93;99732.22;5032677;28;20259;-68
2023/08/11 02:20:58;;;;;;;2.30;1.70;;;;;;;19.32;72.33;99730.25;5031981;28;20708;-68
2023/08/11 02:23:25;;;;;;;4.13;1.90;;;;;;;19.30;72.41;99735.03;5032603;28;20255;-68
2023/08/11 02:25:51;;;;;;;2.03;1.83;;;;;;;19.24;72.73;99730.66;5032298;28;20287;-67
2023/08/11 02:28:18;;;;;;;3.80;2.70;;;;;;;19.28;72.42;99726.41;5032431;28;20193;-67
2023/08/11 02:30:46;;;;;;;2.97;2.20;;;;;;;19.40;71.74;99741.41;5032660;28;20193;-67
2023/08/11 02:33:18;;;;;;;2.07;1.97;;;;;;;19.53;71.33;99735.66;5032291;28;20657;-68
2023/08/11 02:35:45;;;;;;;2.10;2.00;;;;;;;19.65;71.75;99722.88;5032308;28;20185;-67
2023/08/11 02:38:12;;;;;;;2.27;1.97;;;;;;;19.60;70.27;99711.25;5032608;28;20632;-67
2023/08/11 02:40:39;;;;;;;2.43;2.30;;;;;;;19.66;70.73;99732.63;5032501;28;20286;-67
2023/08/11 02:43:07;;;;;;;2.40;2.20;;;;;;;19.82;70.45;99739.88;5031618;28;20185;-67
2023/08/11 02:45:34;;;;;;;2.00;1.90;;;;;;;19.94;69.51;99742.44;5032182;28;20197;-67
2023/08/11 02:48:01;;;;;;;1.87;1.60;;;;;;;20.26;69.12;99740.72;5032442;28;20259;-66
2023/08/11 02:50:29;;;;;;;2.77;1.83;;;;;;;20.57;69.14;99747.25;5031579;28;20293;-67
2023/08/11 02:52:56;;;;;;;2.23;2.03;;;;;;;20.55;67.44;99751.00;5032265;28;20197;-67
2023/08/11 02:55:22;;;;;;;2.00;1.90;;;;;;;20.56;67.38;99754.53;5032347;28;20193;-68
2023/08/11 02:57:49;;;;;;;2.30;2.20;;;;;;;20.44;67.86;99762.78;5031867;28;20617;-67
2023/08/11 03:00:17;;;;;;;2.00;1.90;;;;;;;20.37;68.93;99758.63;5032238;28;20244;-68
2023/08/11 03:02:45;;;;;;;3.80;2.00;;;;;;;20.35;68.47;99764.25;5031179;28;20228;-68
2023/08/11 03:05:14;;;;;;;3.07;2.00;;;;;;;20.30;68.98;99766.91;5032174;28;20204;-68
2023/08/11 03:07:43;;;;;;;2.13;2.03;;;;;;;20.01;69.81;99759.25;5031743;28;20193;-67
2023/08/11 03:10:10;;;;;;;1.97;1.87;;;;;;;19.93;72.32;99751.59;5032092;28;20279;-69
2023/08/11 03:12:37;;;;;;;2.77;1.97;;;;;;;20.16;70.73;99764.84;5031740;28;20193;-68
2023/08/11 03:15:05;;;;;;;2.07;1.97;;;;;;;20.27;69.62;99769.31;5032156;28;20193;-69
2023/08/11 03:17:32;;;;;;;2.20;2.00;;;;;;;20.15;69.65;99765.91;5030925;28;20189;-68
2023/08/11 03:19:59;;;;;;;2.40;1.90;;;;;;;20.12;70.13;99769.94;5032076;28;20197;-68
2023/08/11 03:22:26;;;;;;;2.07;1.90;;;;;;;20.10;70.58;99747.00;5031559;28;20220;-68
2023/08/11 03:24:54;;;;;;;4.57;1.60;;;;;;;20.28;70.08;99760.97;5031580;28;20758;-67
2023/08/11 03:27:21;;;;;;;7.47;2.00;;;;;;;20.52;68.25;99767.72;5031185;28;20228;-68
2023/08/11 03:29:48;;;;;;;4.20;2.40;;;;;;;20.70;68.27;99774.63;5032035;28;20224;-68
2023/08/11 03:32:14;;;;;;;4.00;2.30;;;;;;;20.92;66.94;99771.91;5031297;28;20256;-74
2023/08/11 03:34:41;;;;;;;4.50;2.50;;;;;;;20.88;66.65;99766.19;5031115;28;20197;-68
2023/08/11 03:37:08;;;;;;;5.70;2.27;;;;;;;20.59;66.86;99767.53;5033526;28;20194;-69
2023/08/11 03:39:35;;;;;;;2.53;2.00;;;;;;;20.44;67.58;99775.44;5035612;28;20197;-68
2023/08/11 03:42:03;;;;;;;3.63;2.90;;;;;;;20.45;68.52;99774.38;5035356;28;20217;-68
2023/08/11 03:44:30;;;;;;;2.87;2.67;;;;;;;20.56;67.36;99778.81;5035151;28;20197;-68
2023/08/11 03:46:56;;;;;;;4.03;2.07;;;;;;;20.75;68.64;99769.31;5035048;28;20193;-69
2023/08/11 03:49:23;;;;;;;4.13;2.20;;;;;;;21.19;66.91;99787.03;5035157;28;20664;-68
2023/08/11 03:51:50;;;;;;;3.27;2.10;;;;;;;21.69;64.66;99792.00;5035858;28;20197;-69
2023/08/11 03:54:16;;;;;;;2.57;2.23;;;;;;;21.93;63.40;99802.19;5034467;28;20661;-71
2023/08/11 03:56:44;;;;;;;4.20;2.30;;;;;;;22.11;62.34;99799.06;5034757;28;20574;-69
2023/08/11 03:59:12;;;;;;;2.60;2.50;;;;;;;22.60;61.15;99797.66;5035154;28;20672;-69
2023/08/11 04:01:38;;;;;;;2.43;2.10;;;;;;;23.05;60.06;99794.22;5035164;28;20216;-68
2023/08/11 04:04:06;;;;;;;5.50;2.10;;;;;;;23.61;56.38;99810.22;5035273;28;20244;-68
2023/08/11 04:06:33;;;;;;;2.40;2.20;;;;;;;24.06;55.56;99812.88;5035146;28;20269;-68
2023/08/11 04:08:59;;;;;;;2.00;1.73;;;;;;;24.41;55.00;99809.25;5034641;28;20191;-68
2023/08/11 04:11:26;;;;;;;6.73;2.73;;;;;;;24.74;52.94;99814.00;5035316;28;20261;-68
2023/08/11 04:13:53;;;;;;;2.13;2.03;;;;;;;25.02;51.98;99820.66;5035258;28;20192;-68
2023/08/11 04:16:22;;;;;;;20.00;4.40;;;;;;;25.27;50.11;99834.06;5035229;28;20255;-69
2023/08/11 04:18:49;;;;;;;5.93;2.27;;;;;;;25.60;49.43;99838.72;5035208;28;20228;-69
2023/08/11 04:21:15;;;;;;;10.10;2.40;;;;;;;25.91;48.32;99834.59;5034788;28;20228;-69
2023/08/11 04:23:42;;;;;;;3.73;2.30;;;;;;;26.26;46.98;99832.38;5034303;28;20251;-69
2023/08/11 04:26:10;;;;;;;6.20;2.37;;;;;;;26.47;46.35;99839.19;5035186;28;20236;-69
2023/08/11 04:28:38;;;;;;;11.83;2.80;;;;;;;26.64;45.90;99833.28;5034684;28;20248;-68
2023/08/11 04:31:06;;;;;;;3.80;2.73;;;;;;;26.83;46.09;99831.41;5034345;28;20316;-69
2023/08/11 04:33:34;;;;;;;10.77;2.17;;;;;;;27.28;44.60;99838.94;5034789;28;20197;-69
2023/08/11 04:36:02;;;;;;;6.27;2.57;;;;;;;27.84;42.28;99836.91;5034899;28;20199;-69
2023/08/11 04:38:30;;;;;;;9.00;2.50;;;;;;;28.15;41.70;99837.97;5034418;28;20277;-69
2023/08/11 04:40:57;;;;;;;5.53;2.33;;;;;;;28.59;40.12;99849.94;5034906;28;20259;-71
2023/08/11 04:43:24;;;;;;;9.07;2.23;;;;;;;28.77;39.87;99846.28;5034299;28;20559;-71
2023/08/11 04:45:51;;;;;;;6.47;2.97;;;;;;;28.96;39.66;99843.44;5034095;28;20256;-69
2023/08/11 04:48:17;;;;;;;3.67;2.50;;;;;;;29.08;38.72;99833.56;5033662;28;20727;-69
2023/08/11 04:50:51;;;;;;;4.93;2.60;;;;;;;29.21;38.44;99826.44;5034098;28;20243;-67
2023/08/11 04:53:18;;;;;;;7.40;2.30;;;;;;;29.21;38.31;99840.13;5034278;28;20280;-68
2023/08/11 04:55:45;;;;;;;4.03;1.93;;;;;;;29.30;38.41;99832.78;5034485;28;20286;-67
2023/08/11 04:58:13;;;;;;;6.00;2.23;;;;;;;29.15;38.45;99830.41;5034465;28;20239;-69
2023/08/11 05:00:40;;;;;;;2.37;2.03;;;;;;;29.39;38.00;99830.13;5034184;28;20189;-68
2023/08/11 05:03:07;;;;;;;1.70;1.60;;;;;;;29.41;37.56;99834.19;5034192;28;20286;-69
2023/08/11 05:05:33;;;;;;;4.03;2.10;;;;;;;29.28;38.09;99829.56;5033702;28;20197;-68
2023/08/11 05:08:02;;;;;;;5.00;2.00;;;;;;;29.47;37.92;99827.44;5033582;28;20247;-69
2023/08/11 05:10:28;;;;;;;2.80;2.07;;;;;;;29.60;38.00;99825.78;5034230;28;20197;-69
2023/08/11 05:12:55;;;;;;;4.47;2.20;;;;;;;29.92;37.15;99831.00;5032263;28;20263;-69
2023/08/11 05:15:22;;;;;;;3.20;2.20;;;;;;;30.18;36.14;99835.50;5033549;28;20209;-69
2023/08/11 05:17:49;;;;;;;5.83;2.30;;;;;;;30.20;36.28;99835.97;5033493;28;20219;-68
2023/08/11 05:20:17;;;;;;;11.57;3.10;;;;;;;30.46;35.07;99834.13;5033489;28;20200;-67
2023/08/11 05:22:44;;;;;;;3.23;2.03;;;;;;;30.74;35.01;99840.22;5033185;28;20308;-68
2023/08/11 05:25:12;;;;;;;5.70;2.50;;;;;;;30.86;34.23;99843.16;5032279;28;20312;-70
2023/08/11 05:27:40;;;;;;;3.60;2.27;;;;;;;30.21;35.26;99832.09;5033220;28;20558;-73
2023/08/11 05:30:08;;;;;;;3.30;2.30;;;;;;;30.42;34.82;99833.16;5032746;28;20201;-76
2023/08/11 05:32:35;;;;;;;3.37;2.20;;;;;;;30.42;34.71;99838.63;5032489;28;20201;-71
2023/08/11 05:35:02;;;;;;;3.37;2.30;;;;;;;30.72;34.30;99840.53;5033074;28;20201;-72
2023/08/11 05:37:29;;;;;;;4.20;1.90;;;;;;;30.60;34.29;99851.28;5033341;28;20284;-73
2023/08/11 05:39:56;;;;;;;3.00;2.37;;;;;;;30.64;34.96;99841.28;5032917;28;20201;-73
2023/08/11 05:42:24;;;;;;;4.87;2.33;;;;;;;30.33;35.12;99843.28;5032274;28;20260;-72
2023/08/11 05:44:51;;;;;;;2.50;2.27;;;;;;;30.70;34.25;99844.72;5032916;28;20197;-69
2023/08/11 05:47:18;;;;;;;3.63;1.90;;;;;;;30.32;35.04;99838.94;5033278;28;20205;-69
2023/08/11 05:49:45;;;;;;;10.27;2.57;;;;;;;30.74;34.45;99846.50;5032656;28;20193;-69
2023/08/11 05:52:12;;;;;;;5.83;2.43;;;;;;;30.73;34.17;99855.03;5030736;28;20202;-68
2023/08/11 05:54:38;;;;;;;2.37;2.17;;;;;;;30.97;34.57;99864.47;5029715;28;20197;-69
2023/08/11 05:57:05;;;;;;;2.30;2.20;;;;;;;31.19;32.85;99858.03;5031745;28;20738;-69
2023/08/11 05:59:33;;;;;;;2.43;2.10;;;;;;;31.24;33.58;99852.41;5031308;28;20696;-69
2023/08/11 06:02:00;;;;;;;2.47;2.13;;;;;;;31.13;33.56;99853.81;5032519;28;20217;-72
2023/08/11 06:04:27;;;;;;;7.73;2.20;;;;;;;30.65;34.01;99858.53;5032205;28;20193;-73
2023/08/11 06:06:53;;;;;;;5.20;2.20;;;;;;;30.21;34.00;99855.97;5029802;28;20201;-72
2023/08/11 06:09:20;;;;;;;3.90;1.90;;;;;;;29.47;36.05;99846.59;5029325;28;20193;-70
2023/08/11 06:11:47;;;;;;;6.40;2.20;;;;;;;29.79;36.29;99851.84;5027242;28;20198;-70
2023/08/11 06:14:14;;;;;;;3.83;2.20;;;;;;;30.17;35.29;99853.03;5029925;28;20193;-70
2023/08/11 06:16:42;;;;;;;3.40;2.13;;;;;;;30.33;34.70;99848.75;5029901;28;20726;-71
2023/08/11 06:19:08;;;;;;;2.90;2.10;;;;;;;30.48;35.00;99851.09;5029352;28;20194;-70
2023/08/11 06:21:35;;;;;;;4.30;2.30;;;;;;;30.65;34.12;99856.63;5029898;28;20280;-71
2023/08/11 06:24:03;;;;;;;2.23;2.10;;;;;;;30.95;33.83;99858.47;5030528;28;20275;-69
2023/08/11 06:26:29;;;;;;;7.10;2.53;;;;;;;30.74;34.07;99862.16;5030415;28;20200;-70
2023/08/11 06:28:56;;;;;;;6.53;2.97;;;;;;;30.73;34.24;99858.59;5030988;28;20224;-68
2023/08/11 06:31:23;;;;;;;5.40;2.70;;;;;;;30.76;33.92;99865.38;5030609;28;20728;-69
2023/08/11 06:33:51;;;;;;;257.87;22.57;;;;;;;30.12;34.79;99855.09;5030695;28;20201;-70
2023/08/11 06:36:18;;;;;;;13.60;2.57;;;;;;;30.04;36.05;99855.88;5027584;28;20202;-70
2023/08/11 06:38:44;;;;;;;11.57;2.73;;;;;;;30.19;35.34;99856.28;5025709;28;20201;-68
2023/08/11 06:41:11;;;;;;;12.27;2.70;;;;;;;30.38;35.63;99853.31;5031220;28;20198;-76
2023/08/11 06:43:39;;;;;;;4.03;2.37;;;;;;;30.59;35.06;99859.81;5031472;28;20252;-76
2023/08/11 06:46:06;;;;;;;5.40;2.37;;;;;;;30.67;35.03;99861.78;5030951;28;20276;-73
2023/08/11 06:48:33;;;;;;;5.53;2.10;;;;;;;30.61;35.51;99863.88;5030390;28;20263;-72
2023/08/11 06:51:01;;;;;;;13.63;3.03;;;;;;;30.88;34.81;99873.81;5031445;28;20197;-66
2023/08/11 06:53:27;;;;;;;5.07;2.50;;;;;;;30.69;34.49;99865.84;5030183;28;20197;-65
2023/08/11 06:55:54;;;;;;;8.77;2.40;;;;;;;30.79;34.59;99867.50;5030101;28;20205;-66
2023/08/11 06:58:21;;;;;;;5.17;2.27;;;;;;;30.71;34.51;99862.81;5030956;28;20542;-66
2023/08/11 07:00:46;;;;;;;47.27;5.17;;;;;;;30.36;34.95;99856.38;5030752;28;20201;-66
2023/08/11 07:03:13;;;;;;;4.57;2.13;;;;;;;30.27;35.86;99863.75;5029833;28;20754;-66
2023/08/11 07:05:40;;;;;;;2.07;1.90;;;;;;;29.82;35.81;99862.19;5028748;28;20251;-65
2023/08/11 07:08:08;;;;;;;4.43;2.77;;;;;;;29.78;36.04;99858.47;5030193;28;20225;-67
2023/08/11 07:10:34;;;;;;;3.13;1.90;;;;;;;29.34;35.89;99855.69;5030066;28;20267;-64
2023/08/11 07:13:01;;;;;;;2.27;2.17;;;;;;;29.07;37.14;99855.78;5030139;28;20189;-65
2023/08/11 07:15:28;;;;;;;6.80;2.33;;;;;;;29.52;37.40;99868.38;5030106;28;20205;-69
2023/08/11 07:17:54;;;;;;;4.53;2.40;;;;;;;29.85;37.46;99871.72;5030535;28;20244;-68
2023/08/11 07:20:21;;;;;;;4.20;2.23;;;;;;;30.15;36.90;99874.50;5031122;28;20225;-68
2023/08/11 07:22:48;;;;;;;4.43;2.20;;;;;;;30.50;36.13;99865.28;5030790;28;20224;-67
2023/08/11 07:25:16;;;;;;;3.77;2.27;;;;;;;30.64;35.86;99862.41;5030883;28;20287;-67
2023/08/11 07:27:43;;;;;;;3.43;2.23;;;;;;;30.46;35.87;99878.00;5030960;28;20679;-67
2023/08/11 07:30:10;;;;;;;4.27;2.13;;;;;;;30.02;35.00;99871.81;5031163;28;20201;-69
2023/08/11 07:32:37;;;;;;;2.23;2.13;;;;;;;29.73;36.35;99868.72;5030977;28;20280;-69
2023/08/11 07:35:05;;;;;;;6.40;2.07;;;;;;;29.70;36.26;99872.91;5031004;28;20198;-69
2023/08/11 07:37:31;;;;;;;3.13;1.93;;;;;;;30.08;35.78;99871.34;5030992;28;20204;-66
2023/08/11 07:39:58;;;;;;;3.70;2.40;;;;;;;30.49;34.87;99866.41;5030471;28;20227;-68
2023/08/11 07:42:26;;;;;;;6.60;1.80;;;;;;;30.58;34.97;99869.97;5030454;28;20221;-67
2023/08/11 07:44:53;;;;;;;4.50;2.20;;;;;;;30.87;34.05;99877.69;5030687;28;20205;-68
2023/08/11 07:47:20;;;;;;;2.23;2.00;;;;;;;31.33;33.46;99881.50;5030600;28;20240;-67
2023/08/11 07:49:47;;;;;;;4.80;2.40;;;;;;;31.18;33.48;99873.69;5030803;28;20631;-69
2023/08/11 07:52:13;;;;;;;3.63;2.13;;;;;;;31.38;32.65;99888.75;5030661;28;20255;-67
2023/08/11 07:54:40;;;;;;;5.20;2.10;;;;;;;31.21;33.25;99872.22;5030849;28;20263;-67
2023/08/11 07:57:07;;;;;;;3.90;2.13;;;;;;;31.21;33.47;99878.53;5030507;28;20657;-65
2023/08/11 07:59:35;;;;;;;3.83;1.97;;;;;;;31.44;32.73;99882.75;5028982;28;20206;-68
2023/08/11 08:02:01;;;;;;;1.67;1.57;;;;;;;31.32;32.42;99885.34;5029573;28;20259;-66
2023/08/11 08:04:28;;;;;;;9.67;2.47;;;;;;;30.88;32.76;99877.38;5030167;28;20248;-66
2023/08/11 08:06:55;;;;;;;2.00;1.90;;;;;;;31.10;32.83;99882.72;5029423;28;20197;-68
2023/08/11 08:09:21;;;;;;;1.83;1.67;;;;;;;31.09;31.48;99859.16;5030148;28;20757;-66
2023/08/11 08:11:48;;;;;;;1.83;1.73;;;;;;;31.46;31.39;99875.03;5029685;28;20256;-68
2023/08/11 08:14:15;;;;;;;1.87;1.77;;;;;;;31.77;31.49;99881.13;5027920;28;20189;-68
2023/08/11 08:16:45;;;;;;;4.20;1.80;;;;;;;31.67;31.33;99878.72;5025909;28;20255;-68
2023/08/11 08:19:14;;;;;;;4.00;1.90;;;;;;;31.53;31.50;99858.88;5028967;28;20303;-67
2023/08/11 08:21:42;;;;;;;1.63;1.53;;;;;;;31.53;31.11;99869.84;5029849;28;20684;-68
2023/08/11 08:24:09;;;;;;;3.53;1.60;;;;;;;31.41;31.57;99872.44;5029869;28;20217;-69
2023/08/11 08:26:36;;;;;;;6.10;2.00;;;;;;;31.66;31.84;99846.88;5031402;28;20193;-67
2023/08/11 08:29:03;;;;;;;3.37;1.83;;;;;;;32.00;30.99;99863.31;5032862;28;20193;-69
2023/08/11 08:31:30;;;;;;;2.87;1.80;;;;;;;32.32;29.78;99864.69;5032165;28;20189;-73
2023/08/11 08:33:58;;;;;;;1.47;1.37;;;;;;;32.40;29.77;99867.41;5032449;28;20198;-72
2023/08/11 08:36:25;;;;;;;9.80;1.70;;;;;;;32.53;30.48;99865.56;5032989;28;20683;-71
2023/08/11 08:38:53;;;;;;;6.37;2.27;;;;;;;32.52;30.47;99859.25;5032695;28;20220;-72
2023/08/11 08:41:23;;;;;;;2.63;1.73;;;;;;;32.71;29.13;99862.38;5033833;28;21601;-70
2023/08/11 08:43:51;;;;;;;2.88;1.60;;;;;;;32.46;29.63;99859.78;5030705;28;20202;-70
2023/08/11 08:46:21;;;;;;;1.95;1.50;;;;;;;32.45;29.01;99858.97;5033433;28;20231;-68
2023/08/11 08:48:53;;;;;;;2.65;1.50;;;;;;;32.70;28.64;99855.28;5030511;28;20235;-69
2023/08/11 08:51:21;;;;;;;4.70;1.90;;;;;;;32.92;27.43;99865.22;5033238;28;20268;-69
2023/08/11 08:53:49;;;;;;;3.97;1.70;;;;;;;32.84;27.88;99855.06;5031897;28;20197;-70
2023/08/11 08:56:16;;;;;;;5.53;1.90;;;;;;;32.24;28.02;99860.00;5032879;28;20255;-70
2023/08/11 08:58:43;;;;;;;4.22;1.88;;;;;;;31.95;29.14;99859.94;5033168;28;20197;-69
2023/08/11 09:01:11;;;;;;;4.23;1.77;;;;;;;32.32;28.38;99857.25;5033111;28;20292;-72
2023/08/11 09:03:39;;;;;;;4.03;1.53;;;;;;;31.92;28.86;99855.91;5032892;28;20214;-70
2023/08/11 09:06:07;;;;;;;2.53;2.43;;;;;;;31.48;28.90;99856.25;5032488;28;20197;-71
2023/08/11 09:08:39;;;;;;;6.70;1.60;;;;;;;32.06;28.97;99862.00;5028584;28;20205;-69
2023/08/11 09:11:06;;;;;;;2.60;1.50;;;;;;;31.91;28.44;99864.47;5032426;28;20573;-69
2023/08/11 09:13:33;;;;;;;3.43;1.50;;;;;;;31.33;29.52;99854.03;5032329;28;21591;-69
2023/08/11 09:15:59;;;;;;;1.40;1.30;;;;;;;31.52;29.81;99846.25;5032937;28;20193;-68
2023/08/11 09:18:26;;;;;;;1.40;1.30;;;;;;;32.03;28.79;99848.09;5032311;28;20917;-69
2023/08/11 09:20:53;;;;;;;1.63;1.53;;;;;;;32.32;28.50;99842.69;5032164;28;20193;-70
2023/08/11 09:23:20;;;;;;;1.47;1.37;;;;;;;32.71;27.43;99845.88;5032335;28;20271;-69
2023/08/11 09:25:49;;;;;;;2.13;1.60;;;;;;;32.96;26.80;99853.19;5033435;28;20228;-70
2023/08/11 09:28:15;;;;;;;1.67;1.57;;;;;;;33.07;26.48;99848.91;5032637;28;20193;-70
2023/08/11 09:30:42;;;;;;;1.63;1.30;;;;;;;33.32;26.96;99836.09;5032748;28;20624;-70
2023/08/11 09:33:09;;;;;;;4.33;1.63;;;;;;;32.93;27.08;99836.53;5031229;28;20704;-72
2023/08/11 09:35:36;;;;;;;1.90;1.80;;;;;;;32.93;27.17;99831.84;5029169;28;20186;-68
2023/08/11 09:38:04;;;;;;;1.87;1.77;;;;;;;33.35;27.24;99837.38;5032294;28;20198;-70
2023/08/11 09:40:33;;;;;;;1.83;1.40;;;;;;;32.73;26.69;99829.84;5031667;28;20185;-68
2023/08/11 09:43:01;;;;;;;4.13;2.03;;;;;;;32.80;27.25;99832.06;5030901;28;20224;-68
2023/08/11 09:45:27;;;;;;;1.77;1.67;;;;;;;32.52;27.67;99837.25;5032093;28;20791;-67
2023/08/11 09:47:54;;;;;;;1.87;1.47;;;;;;;32.10;28.35;99829.94;5032038;28;20205;-66
2023/08/11 09:50:23;;;;;;;2.23;1.73;;;;;;;32.56;27.24;99818.94;5030533;28;20193;-67
2023/08/11 09:52:50;;;;;;;1.17;1.17;;;;;;;32.94;26.87;99827.13;5031055;28;20205;-67
2023/08/11 09:55:18;;;;;;;1.40;1.30;;;;;;;33.17;26.71;99825.66;5031134;28;20201;-75
2023/08/11 09:57:46;;;;;;;1.40;1.30;;;;;;;33.36;25.72;99825.19;5012050;28;20285;-66
2023/08/11 10:00:14;;;;;;;6.30;1.50;;;;;;;33.48;26.35;99825.25;5018205;28;20673;-68
2023/08/11 10:02:47;;;;;;;1.93;1.63;;;;;;;33.54;26.19;99815.63;5029048;28;20193;-67
2023/08/11 10:05:17;;;;;;;1.77;1.70;;;;;;;33.26;27.52;99824.44;5030643;28;20186;-68
2023/08/11 10:07:47;;;;;;;3.88;3.35;;;;;;;33.15;29.00;99816.91;5031152;28;20192;-69
2023/08/11 10:10:15;;;;;;;3.95;3.50;;;;;;;33.28;29.22;99816.63;5032244;28;20263;-68
2023/08/11 10:12:46;;;;;;;6.27;4.07;;;;;;;33.41;28.49;99817.53;5032078;28;20193;-68
2023/08/11 10:15:20;;;;;;;3.08;1.30;;;;;;;32.87;26.38;99822.16;5016506;28;20645;-67
2023/08/11 10:17:48;;;;;;;3.40;1.55;;;;;;;32.02;27.16;99827.25;5032336;28;20194;-65
2023/08/11 10:20:15;;;;;;;1.70;1.60;;;;;;;31.94;27.66;99815.16;5031127;28;20311;-68
2023/08/11 10:22:42;;;;;;;2.00;1.53;;;;;;;32.31;27.88;99808.91;5031543;28;20205;-65
2023/08/11 10:25:10;;;;;;;2.57;1.40;;;;;;;32.68;27.21;99810.78;5031782;28;20285;-66
2023/08/11 10:27:38;;;;;;;5.30;2.70;;;;;;;32.92;27.47;99797.16;5031463;28;20192;-69
2023/08/11 10:30:08;;;;;;;2.03;1.70;;;;;;;32.54;27.65;99807.44;5030891;28;20724;-69
2023/08/11 10:32:36;;;;;;;1.50;1.40;;;;;;;32.50;26.77;99806.50;5030054;28;20193;-68
2023/08/11 10:35:07;;;;;;;1.60;1.50;;;;;;;32.50;26.75;99814.75;5030975;28;20203;-70
2023/08/11 10:37:35;;;;;;;1.60;1.50;;;;;;;32.46;27.07;99804.75;5030954;28;20232;-68
2023/08/11 10:40:04;;;;;;;2.57;1.17;;;;;;;32.37;26.38;99806.72;5031117;28;20194;-67
2023/08/11 10:42:32;;;;;;;3.63;1.97;;;;;;;32.26;26.86;99806.28;5012087;28;20205;-75
2023/08/11 10:45:08;;;;;;;1.97;1.80;;;;;;;32.45;27.46;99798.44;5023934;28;20213;-77
2023/08/11 10:47:37;;;;;;;2.27;1.10;;;;;;;32.66;26.31;99799.28;5027286;28;20181;-72
2023/08/11 10:50:04;;;;;;;1.67;1.30;;;;;;;32.76;26.27;99790.66;5030986;28;20216;-72
2023/08/11 10:52:30;;;;;;;1.63;1.35;;;;;;;32.91;26.49;99784.56;5030544;28;20209;-75
2023/08/11 10:54:59;;;;;;;1.92;1.35;;;;;;;32.69;25.66;99787.63;5031143;28;20193;-78
2023/08/11 10:57:27;;;;;;;1.55;1.30;;;;;;;32.72;26.36;99784.19;5030365;28;20189;-77
2023/08/11 10:59:54;;;;;;;4.00;1.30;;;;;;;32.49;26.43;99793.91;5030077;28;20208;-75
2023/08/11 11:02:21;;;;;;;3.17;1.77;;;;;;;32.54;26.88;99788.19;5030221;28;20193;-78
2023/08/11 11:04:51;;;;;;;1.70;1.60;;;;;;;32.64;26.14;99790.56;5030848;28;20724;-77
2023/08/11 11:07:23;;;;;;;1.40;1.40;;;;;;;32.88;25.54;99785.25;5030806;28;20197;-77
2023/08/11 11:09:51;;;;;;;1.47;1.43;;;;;;;32.69;25.70;99798.63;5031117;28;20272;-78
2023/08/11 11:12:18;;;;;;;1.40;1.40;;;;;;;32.87;25.48;99786.38;5030057;28;20189;-75
2023/08/11 11:14:45;;;;;;;1.50;1.20;;;;;;;32.93;25.56;99785.03;5028337;28;20224;-76
2023/08/11 11:17:12;;;;;;;1.27;1.20;;;;;;;33.12;25.66;99790.06;5029412;28;20754;-72
2023/08/11 11:19:38;;;;;;;3.67;1.70;;;;;;;33.19;25.89;99785.63;5031426;28;20251;-75
2023/08/11 11:22:07;;;;;;;2.58;1.25;;;;;;;33.18;25.24;99781.25;5029834;28;20263;-77
2023/08/11 11:24:34;;;;;;;2.45;1.30;;;;;;;32.89;25.82;99775.84;5029910;28;20641;-77
2023/08/11 11:27:01;;;;;;;1.40;1.40;;;;;;;32.94;25.46;99778.38;5028867;28;20200;-78
2023/08/11 11:29:28;;;;;;;1.60;1.35;;;;;;;33.09;25.47;99786.03;5031002;28;20193;-78
2023/08/11 11:31:55;;;;;;;3.22;1.40;;;;;;;33.16;25.72;99774.47;5030897;28;20263;-72
2023/08/11 11:34:22;;;;;;;1.75;1.40;;;;;;;33.24;25.62;99777.13;5030850;28;20197;-75